createdAt,value
2022-10-06T00:00:49.089Z,3.38
2022-10-06T00:06:24.755Z,2.90
2022-10-06T00:11:56.175Z,2.78
2022-10-06T00:17:27.699Z,2.83
2022-10-06T00:22:58.748Z,2.85
2022-10-06T00:28:30.235Z,2.92
2022-10-06T00:34:02.545Z,2.90
2022-10-06T00:39:33.638Z,3.13
2022-10-06T00:45:06.457Z,3.08
2022-10-06T00:50:38.410Z,3.17
2022-10-06T00:56:09.728Z,3.25
2022-10-06T01:01:44.738Z,2.90
2022-10-06T01:07:17.908Z,2.58
2022-10-06T01:12:48.938Z,2.83
2022-10-06T01:18:22.107Z,2.50
2022-10-06T01:23:53.223Z,2.70
2022-10-06T01:29:25.596Z,2.40
2022-10-06T01:34:56.932Z,2.90
2022-10-06T01:40:29.441Z,3.17
2022-10-06T01:46:04.364Z,2.58
2022-10-06T01:51:35.611Z,3.40
2022-10-06T01:57:08.572Z,2.60
2022-10-06T02:08:11.341Z,2.40
2022-10-06T02:13:42.459Z,2.70
2022-10-06T02:19:13.729Z,2.30
2022-10-06T02:24:44.657Z,2.83
2022-10-06T02:30:16.115Z,2.55
2022-10-06T02:35:49.351Z,2.73
2022-10-06T02:41:20.513Z,2.40
2022-10-06T02:46:52.849Z,2.70
2022-10-06T02:52:24.243Z,2.70
2022-10-06T02:57:55.436Z,2.92
2022-10-06T03:03:26.831Z,2.45
2022-10-06T03:09:03.113Z,2.20
2022-10-06T03:14:35.779Z,2.45
2022-10-06T03:20:08.443Z,2.20
2022-10-06T03:25:39.896Z,2.30
2022-10-06T03:31:14.146Z,2.40
2022-10-06T03:36:45.141Z,2.30
2022-10-06T03:42:17.154Z,1.98
2022-10-06T03:47:49.787Z,2.13
2022-10-06T03:53:25.754Z,2.50
2022-10-06T03:58:59.990Z,2.22
2022-10-06T04:04:32.617Z,2.10
2022-10-06T04:10:08.375Z,2.13
2022-10-06T04:15:40.221Z,1.97
2022-10-06T04:21:13.052Z,2.08
2022-10-06T04:26:46.947Z,1.87
2022-10-06T04:32:18.030Z,1.83
2022-10-06T04:37:50.367Z,2.15
2022-10-06T04:43:22.211Z,2.30
2022-10-06T04:48:54.891Z,1.85
2022-10-06T04:54:33.514Z,1.80
2022-10-06T05:00:25.560Z,1.95
2022-10-06T05:06:08.689Z,2.03
2022-10-06T05:11:40.737Z,1.97
2022-10-06T05:17:15.494Z,2.00
2022-10-06T05:22:47.013Z,1.92
2022-10-06T05:28:18.401Z,2.00
2022-10-06T05:33:50.083Z,1.92
2022-10-06T05:39:21.364Z,2.00
2022-10-06T05:44:59.776Z,1.80
2022-10-06T05:50:31.238Z,1.88
2022-10-06T05:56:10.547Z,1.98
2022-10-06T06:01:44.251Z,1.90
2022-10-06T06:07:23.216Z,1.95
2022-10-06T06:12:54.457Z,1.90
2022-10-06T06:18:43.196Z,1.80
2022-10-06T06:24:18.193Z,2.03
2022-10-06T06:29:50.589Z,2.03
2022-10-06T06:35:22.586Z,1.97
2022-10-06T06:40:54.350Z,1.70
2022-10-06T06:46:32.139Z,2.10
2022-10-06T06:52:08.603Z,1.98
2022-10-06T06:57:42.997Z,2.08
2022-10-06T07:03:38.586Z,1.90
2022-10-06T07:09:11.665Z,2.00
2022-10-06T07:15:04.422Z,1.90
2022-10-06T07:20:59.414Z,2.10
2022-10-06T07:26:32.379Z,1.75
2022-10-06T07:32:04.660Z,1.80
2022-10-06T07:37:35.711Z,1.90
2022-10-06T07:43:07.361Z,1.80
2022-10-06T07:48:50.395Z,2.03
2022-10-06T07:54:26.526Z,1.85
2022-10-06T08:00:26.863Z,1.60
2022-10-06T08:05:59.726Z,2.40
2022-10-06T08:11:30.665Z,1.52
2022-10-06T08:17:01.707Z,1.55
2022-10-06T08:22:33.507Z,1.77
2022-10-06T08:28:04.621Z,1.90
2022-10-06T08:33:36.246Z,2.08
2022-10-06T08:39:07.489Z,1.70
2022-10-06T08:44:46.203Z,1.52
2022-10-06T08:50:18.191Z,2.20
2022-10-06T08:55:53.836Z,1.90
2022-10-06T09:01:45.359Z,2.13
2022-10-06T09:07:27.766Z,2.03
2022-10-06T09:13:07.614Z,1.63
2022-10-06T09:19:20.277Z,1.80
2022-10-06T09:24:59.596Z,1.90
2022-10-06T09:30:30.896Z,3.50
2022-10-06T09:36:10.014Z,1.67
2022-10-06T09:41:44.876Z,1.70
2022-10-06T09:47:34.994Z,1.90
2022-10-06T09:53:11.189Z,1.65
2022-10-06T09:58:55.311Z,1.65
2022-10-06T10:04:30.556Z,1.98
2022-10-06T10:10:23.398Z,1.75
2022-10-06T10:15:54.823Z,1.75
2022-10-06T10:21:30.202Z,94.20
2022-10-06T10:27:13.512Z,80.35
2022-10-06T10:33:05.456Z,60.92
2022-10-06T10:38:41.254Z,45.90
2022-10-06T10:44:26.937Z,36.00
2022-10-06T10:50:20.138Z,32.38
2022-10-06T10:55:53.749Z,29.83
2022-10-06T11:07:09.557Z,22.00
2022-10-06T11:12:41.577Z,18.92
2022-10-06T11:18:48.208Z,16.10
2022-10-06T11:24:34.582Z,12.48
2022-10-06T11:30:19.316Z,10.82
2022-10-06T11:35:50.788Z,10.50
2022-10-06T11:41:34.168Z,10.43
2022-10-06T11:47:35.636Z,9.23
2022-10-06T11:53:32.329Z,8.57
2022-10-06T11:59:24.134Z,7.93
2022-10-06T12:05:36.291Z,6.97
2022-10-06T12:11:02.335Z,5.85
2022-10-06T12:22:51.983Z,5.70
2022-10-06T12:28:48.404Z,5.28
2022-10-06T12:34:38.302Z,5.35
2022-10-06T12:40:49.996Z,5.28
2022-10-06T12:46:26.308Z,5.20
2022-10-06T12:52:06.609Z,5.25
2022-10-06T12:57:50.936Z,4.25
2022-10-06T13:03:25.775Z,4.10
2022-10-06T13:09:14.082Z,3.92
2022-10-06T13:14:46.139Z,3.80
2022-10-06T13:20:27.621Z,3.70
2022-10-06T13:26:04.438Z,4.13
2022-10-06T13:31:36.789Z,3.42
2022-10-06T13:42:49.015Z,2.97
2022-10-06T13:48:21.275Z,3.33
2022-10-06T13:53:52.679Z,3.08
2022-10-06T13:59:32.384Z,3.08
2022-10-06T14:05:27.201Z,3.22
2022-10-06T14:11:01.410Z,2.88
2022-10-06T14:16:32.781Z,2.70
2022-10-06T14:22:05.457Z,2.70
2022-10-06T14:27:36.591Z,2.90
2022-10-06T14:33:08.609Z,2.30
2022-10-06T14:38:39.802Z,2.78
2022-10-06T14:44:12.437Z,2.65
2022-10-06T14:49:45.263Z,2.50
2022-10-06T14:55:16.245Z,2.80
2022-10-06T15:00:47.547Z,2.97
2022-10-06T15:06:36.802Z,2.70
2022-10-06T15:12:07.960Z,2.60
2022-10-06T15:17:39.332Z,2.38
2022-10-06T15:23:10.717Z,2.38
2022-10-06T15:28:59.977Z,2.53
2022-10-06T15:34:33.911Z,2.60
2022-10-06T15:40:05.818Z,2.30
2022-10-06T15:45:36.620Z,2.30
2022-10-06T15:51:08.351Z,2.30
2022-10-06T15:56:39.490Z,2.53
2022-10-06T16:02:14.855Z,2.60
2022-10-06T16:07:46.173Z,2.25
2022-10-06T16:13:17.304Z,2.10
2022-10-06T16:18:48.776Z,2.05
2022-10-06T16:24:21.119Z,2.22
2022-10-06T16:29:52.274Z,2.25
2022-10-06T16:35:23.662Z,2.20
2022-10-06T16:47:12.411Z,2.00
2022-10-06T16:52:43.762Z,2.38
2022-10-06T16:58:15.615Z,2.10
2022-10-06T17:03:46.599Z,2.88
2022-10-06T17:09:20.471Z,2.10
2022-10-06T17:14:51.522Z,2.47
2022-10-06T17:20:23.474Z,2.20
2022-10-06T17:26:17.607Z,2.03
2022-10-06T17:31:51.140Z,2.55
2022-10-06T17:42:52.985Z,2.28
2022-10-06T17:48:27.274Z,2.40
2022-10-06T17:54:00.634Z,2.40
2022-10-06T17:59:32.122Z,2.50
2022-10-06T18:05:03.131Z,2.55
2022-10-06T18:10:59.775Z,2.50
2022-10-06T18:16:38.121Z,2.63
2022-10-06T18:22:10.761Z,2.78
2022-10-06T18:27:43.003Z,2.70
2022-10-06T18:39:05.837Z,2.67
2022-10-06T18:44:56.234Z,2.75
2022-10-06T18:50:27.880Z,2.63
2022-10-06T18:55:58.709Z,2.60
2022-10-06T19:01:31.132Z,2.72
2022-10-06T19:07:02.735Z,2.73
2022-10-06T19:12:34.118Z,2.63
2022-10-06T19:18:06.536Z,2.65
2022-10-06T19:23:38.849Z,2.60
2022-10-06T19:29:10.855Z,2.83
2022-10-06T19:34:44.429Z,2.85
2022-10-06T19:40:16.230Z,2.83
2022-10-06T19:45:58.214Z,2.70
2022-10-06T19:51:29.332Z,3.00
2022-10-06T19:57:05.183Z,2.92
2022-10-06T20:02:41.416Z,2.72
2022-10-06T20:08:13.381Z,2.90
2022-10-06T20:13:44.814Z,3.10
2022-10-06T20:19:16.039Z,3.30
2022-10-06T20:24:47.994Z,2.92
2022-10-06T20:30:18.872Z,3.00
2022-10-06T20:35:49.816Z,2.90
2022-10-06T20:41:20.831Z,2.80
2022-10-06T20:46:51.882Z,2.80
2022-10-06T20:52:24.466Z,2.95
2022-10-06T20:57:55.132Z,2.95
2022-10-06T21:03:26.154Z,3.15
2022-10-06T21:08:58.566Z,3.13
2022-10-06T21:14:30.373Z,3.37
2022-10-06T21:20:01.448Z,2.65
2022-10-06T21:25:37.080Z,2.95
2022-10-06T21:31:15.553Z,2.80
2022-10-06T21:36:47.028Z,2.97
2022-10-06T21:42:18.681Z,3.17
2022-10-06T21:47:49.618Z,2.85
2022-10-06T21:53:21.778Z,3.38
2022-10-06T21:58:53.774Z,3.42
2022-10-06T22:04:25.195Z,2.88
2022-10-06T22:09:56.529Z,3.47
2022-10-06T22:15:27.628Z,3.92
2022-10-06T22:21:00.247Z,3.35
2022-10-06T22:26:32.768Z,3.20
2022-10-06T22:32:03.926Z,3.85
2022-10-06T22:37:34.962Z,3.60
2022-10-06T22:43:05.727Z,3.95
2022-10-06T22:48:37.247Z,4.00
2022-10-06T22:54:09.666Z,3.72
2022-10-06T22:59:40.938Z,4.07
2022-10-06T23:05:12.361Z,3.10
2022-10-06T23:10:43.236Z,3.60
2022-10-06T23:16:16.646Z,3.72
2022-10-06T23:21:48.126Z,3.33
2022-10-06T23:27:19.483Z,3.40
2022-10-06T23:32:50.600Z,3.50
2022-10-06T23:38:21.409Z,3.72
2022-10-06T23:43:53.017Z,3.65
2022-10-06T23:49:24.327Z,3.80
2022-10-06T23:54:55.155Z,3.70
